createdAt,value
2023-02-05T00:00:34.244Z,20.20
2023-02-05T00:02:36.514Z,27.20
2023-02-05T00:04:39.218Z,27.60
2023-02-05T00:06:41.697Z,17.67
2023-02-05T00:08:46.401Z,21.70
2023-02-05T00:10:54.022Z,19.97
2023-02-05T00:12:58.326Z,19.00
2023-02-05T00:15:00.554Z,21.20
2023-02-05T00:17:03.941Z,24.13
2023-02-05T00:19:06.086Z,16.67
2023-02-05T00:21:08.955Z,17.40
2023-02-05T00:23:11.150Z,14.80
2023-02-05T00:25:13.486Z,20.40
2023-02-05T00:27:15.870Z,16.70
2023-02-05T00:29:21.475Z,17.03
2023-02-05T00:31:24.720Z,17.43
2023-02-05T00:33:27.245Z,17.63
2023-02-05T00:35:29.940Z,16.73
2023-02-05T00:37:32.204Z,13.70
2023-02-05T00:39:34.555Z,16.00
2023-02-05T00:41:39.118Z,17.60
2023-02-05T00:43:42.562Z,17.60
2023-02-05T00:45:45.994Z,13.00
2023-02-05T00:47:48.316Z,13.13
2023-02-05T00:49:50.574Z,15.43
2023-02-05T00:51:52.833Z,13.93
2023-02-05T00:53:55.118Z,15.90
2023-02-05T00:55:57.610Z,15.70
2023-02-05T00:58:01.307Z,15.90
2023-02-05T01:00:04.041Z,14.13
2023-02-05T01:02:06.244Z,12.17
2023-02-05T01:04:08.556Z,13.13
2023-02-05T01:06:10.824Z,12.47
2023-02-05T01:08:14.182Z,11.40
2023-02-05T01:10:16.597Z,11.93
2023-02-05T01:12:18.741Z,11.63
2023-02-05T01:14:21.138Z,11.47
2023-02-05T01:16:23.661Z,10.27
2023-02-05T01:18:25.927Z,11.27
2023-02-05T01:20:29.090Z,11.03
2023-02-05T01:22:31.638Z,14.33
2023-02-05T01:24:33.846Z,10.10
2023-02-05T01:26:36.145Z,11.50
2023-02-05T01:28:38.337Z,9.87
2023-02-05T01:30:40.595Z,12.67
2023-02-05T01:32:43.104Z,9.70
2023-02-05T01:34:45.855Z,19.93
2023-02-05T01:36:48.537Z,11.20
2023-02-05T01:38:54.350Z,9.13
2023-02-05T01:40:56.727Z,8.13
2023-02-05T01:42:58.952Z,9.17
2023-02-05T01:45:40.999Z,11.40
2023-02-05T01:47:43.199Z,11.87
2023-02-05T01:49:46.450Z,13.63
2023-02-05T01:51:49.367Z,9.77
2023-02-05T01:53:51.936Z,11.33
2023-02-05T01:55:58.281Z,12.30
2023-02-05T01:58:01.363Z,12.00
2023-02-05T02:00:06.059Z,13.43
2023-02-05T02:02:16.940Z,9.50
2023-02-05T02:04:48.734Z,11.40
2023-02-05T02:06:51.026Z,10.57
2023-02-05T02:08:53.374Z,12.23
2023-02-05T02:10:57.040Z,11.10
2023-02-05T02:12:59.363Z,10.53
2023-02-05T02:15:04.497Z,11.50
2023-02-05T02:17:07.755Z,9.60
2023-02-05T02:19:21.154Z,10.90
2023-02-05T02:21:38.564Z,10.50
2023-02-05T02:24:04.074Z,12.23
2023-02-05T02:26:24.420Z,10.07
2023-02-05T02:28:27.110Z,10.03
2023-02-05T02:30:38.214Z,9.13
2023-02-05T02:32:49.882Z,9.43
2023-02-05T02:35:07.632Z,9.33
2023-02-05T02:37:20.445Z,9.03
2023-02-05T02:39:29.344Z,9.57
2023-02-05T02:41:39.611Z,10.80
2023-02-05T02:43:47.117Z,10.03
2023-02-05T02:45:54.247Z,7.70
2023-02-05T02:47:58.654Z,8.70
2023-02-05T02:50:03.893Z,9.07
2023-02-05T02:52:08.310Z,9.73
2023-02-05T02:54:13.640Z,8.57
2023-02-05T02:56:17.400Z,7.70
2023-02-05T02:58:25.713Z,6.50
2023-02-05T03:00:30.233Z,9.60
2023-02-05T03:02:34.984Z,9.37
2023-02-05T03:04:39.773Z,6.17
2023-02-05T03:06:46.144Z,8.20
2023-02-05T03:09:17.510Z,6.77
2023-02-05T03:11:19.723Z,7.00
2023-02-05T03:13:22.242Z,6.33
2023-02-05T03:15:33.239Z,7.50
2023-02-05T03:17:36.808Z,6.73
2023-02-05T03:19:38.995Z,7.40
2023-02-05T03:21:47.718Z,5.53
2023-02-05T03:23:50.169Z,11.23
2023-02-05T03:25:52.441Z,8.30
2023-02-05T03:27:59.586Z,7.43
2023-02-05T03:30:06.930Z,5.20
2023-02-05T03:32:11.950Z,5.43
2023-02-05T03:34:33.153Z,5.37
2023-02-05T03:36:48.265Z,4.83
2023-02-05T03:38:59.035Z,5.53
2023-02-05T03:41:14.917Z,11.03
2023-02-05T03:43:40.721Z,6.57
2023-02-05T03:45:51.697Z,5.63
2023-02-05T03:48:14.771Z,8.50
2023-02-05T03:50:32.968Z,8.97
2023-02-05T03:52:38.643Z,5.07
2023-02-05T03:54:52.138Z,7.90
2023-02-05T03:57:06.065Z,5.33
2023-02-05T03:59:11.873Z,8.20
2023-02-05T04:01:14.237Z,4.73
2023-02-05T04:03:18.017Z,5.23
2023-02-05T04:05:24.453Z,8.80
2023-02-05T04:07:29.404Z,4.30
2023-02-05T04:09:31.550Z,9.73
2023-02-05T04:11:34.343Z,4.20
2023-02-05T04:13:39.232Z,6.33
2023-02-05T04:15:44.519Z,5.73
2023-02-05T04:17:49.119Z,3.73
2023-02-05T04:19:51.342Z,4.60
2023-02-05T04:21:55.199Z,4.27
2023-02-05T04:23:57.411Z,7.80
2023-02-05T04:26:00.506Z,4.87
2023-02-05T04:28:10.902Z,6.10
2023-02-05T04:30:13.424Z,5.50
2023-02-05T04:32:19.014Z,4.77
2023-02-05T04:34:21.916Z,3.50
2023-02-05T04:36:25.072Z,4.80
2023-02-05T04:38:28.408Z,8.00
2023-02-05T04:40:30.609Z,5.60
2023-02-05T04:42:32.861Z,5.17
2023-02-05T04:44:35.146Z,6.27
2023-02-05T04:46:37.306Z,5.80
2023-02-05T04:48:39.509Z,9.23
2023-02-05T04:50:41.894Z,5.80
2023-02-05T04:52:44.082Z,7.27
2023-02-05T04:54:46.300Z,5.20
2023-02-05T04:56:48.550Z,8.70
2023-02-05T04:58:50.768Z,4.83
2023-02-05T05:00:52.931Z,7.47
2023-02-05T05:02:55.144Z,4.40
2023-02-05T05:04:57.338Z,4.70
2023-02-05T05:06:59.598Z,5.50
2023-02-05T05:09:01.791Z,6.40
2023-02-05T05:11:14.953Z,5.97
2023-02-05T05:13:17.202Z,5.67
2023-02-05T05:15:19.712Z,6.10
2023-02-05T05:17:21.837Z,6.30
2023-02-05T05:19:24.039Z,4.60
2023-02-05T05:21:26.556Z,5.50
2023-02-05T05:23:28.974Z,7.10
2023-02-05T05:25:32.399Z,5.23
2023-02-05T05:27:34.795Z,5.60
2023-02-05T05:29:37.527Z,7.87
2023-02-05T05:31:40.344Z,7.00
2023-02-05T05:33:42.994Z,4.50
2023-02-05T05:35:46.030Z,6.20
2023-02-05T05:37:48.270Z,7.97
2023-02-05T05:40:09.088Z,9.93
2023-02-05T05:42:30.590Z,4.80
2023-02-05T05:44:32.763Z,5.20
2023-02-05T05:46:36.381Z,8.63
2023-02-05T05:48:38.605Z,5.03
2023-02-05T05:50:41.391Z,6.17
2023-02-05T05:52:43.549Z,6.93
2023-02-05T05:54:46.366Z,6.73
2023-02-05T05:56:49.819Z,7.70
2023-02-05T05:58:52.046Z,9.20
2023-02-05T06:00:54.872Z,6.90
2023-02-05T06:02:57.110Z,5.63
2023-02-05T06:04:59.507Z,8.50
2023-02-05T06:07:02.339Z,7.07
2023-02-05T06:09:04.608Z,10.70
2023-02-05T06:11:06.822Z,8.10
2023-02-05T06:13:09.132Z,6.47
2023-02-05T06:15:11.710Z,9.23
2023-02-05T06:17:13.952Z,5.57
2023-02-05T06:19:16.175Z,8.73
2023-02-05T06:21:18.351Z,5.33
2023-02-05T06:23:20.620Z,5.83
2023-02-05T06:25:22.816Z,5.10
2023-02-05T06:27:24.968Z,4.70
2023-02-05T06:29:27.165Z,5.60
2023-02-05T06:31:31.696Z,6.57
2023-02-05T06:33:34.089Z,8.63
2023-02-05T06:35:36.588Z,7.87
2023-02-05T06:37:47.809Z,6.47
2023-02-05T06:39:50.093Z,6.90
2023-02-05T06:41:52.246Z,4.97
2023-02-05T06:43:54.400Z,3.73
2023-02-05T06:45:56.527Z,5.88
2023-02-05T06:47:59.109Z,5.87
2023-02-05T06:50:01.302Z,3.97
2023-02-05T06:52:04.593Z,5.07
2023-02-05T06:54:06.850Z,3.60
2023-02-05T06:56:09.130Z,8.03
2023-02-05T06:58:11.320Z,8.50
2023-02-05T07:00:14.507Z,4.83
2023-02-05T07:02:16.672Z,7.20
2023-02-05T07:04:18.797Z,4.33
2023-02-05T07:06:21.437Z,4.13
2023-02-05T07:08:23.902Z,4.00
2023-02-05T07:10:26.095Z,7.50
2023-02-05T07:12:28.245Z,5.80
2023-02-05T07:14:31.579Z,6.03
2023-02-05T07:16:33.812Z,7.93
2023-02-05T07:18:36.054Z,5.20
2023-02-05T07:20:38.274Z,4.43
2023-02-05T07:22:40.413Z,4.97
2023-02-05T07:24:42.606Z,6.50
2023-02-05T07:26:45.332Z,6.50
2023-02-05T07:28:47.386Z,7.30
2023-02-05T07:30:50.044Z,6.50
2023-02-05T07:32:52.119Z,15.53
2023-02-05T07:34:54.226Z,4.07
2023-02-05T07:36:56.212Z,6.40
2023-02-05T07:38:58.317Z,7.73
2023-02-05T07:41:04.373Z,3.83
2023-02-05T07:43:06.394Z,4.77
2023-02-05T07:45:09.232Z,4.87
2023-02-05T07:47:11.390Z,4.83
2023-02-05T07:49:13.498Z,5.53
2023-02-05T07:51:20.810Z,5.53
2023-02-05T07:53:23.291Z,4.60
2023-02-05T07:55:25.397Z,6.60
2023-02-05T07:57:27.601Z,5.57
2023-02-05T07:59:29.746Z,5.67
2023-02-05T08:01:32.028Z,6.97
2023-02-05T08:03:34.730Z,5.63
2023-02-05T08:05:37.618Z,8.77
2023-02-05T08:07:39.723Z,9.50
2023-02-05T08:09:42.016Z,7.00
2023-02-05T08:11:44.015Z,9.03
2023-02-05T08:13:46.622Z,4.27
2023-02-05T08:15:48.611Z,6.40
2023-02-05T08:17:50.752Z,9.00
2023-02-05T08:19:52.889Z,7.40
2023-02-05T08:21:54.898Z,7.97
2023-02-05T08:23:58.562Z,8.83
2023-02-05T08:26:00.910Z,5.77
2023-02-05T08:28:02.931Z,4.23
2023-02-05T08:30:06.355Z,8.20
2023-02-05T08:32:08.754Z,6.03
2023-02-05T08:34:10.872Z,5.90
2023-02-05T08:36:13.028Z,4.50
2023-02-05T08:38:15.186Z,5.30
2023-02-05T08:40:17.430Z,4.40
2023-02-05T08:42:19.739Z,5.43
2023-02-05T08:44:21.841Z,4.63
2023-02-05T08:46:33.847Z,6.07
2023-02-05T08:48:48.048Z,3.83
2023-02-05T08:50:50.120Z,3.63
2023-02-05T08:52:52.220Z,3.83
2023-02-05T08:54:54.263Z,4.50
2023-02-05T08:56:56.800Z,3.73
2023-02-05T08:58:59.167Z,5.93
2023-02-05T09:01:02.745Z,4.47
2023-02-05T09:03:06.680Z,3.93
2023-02-05T09:05:09.772Z,5.83
2023-02-05T09:07:12.000Z,3.43
2023-02-05T09:09:14.203Z,3.83
2023-02-05T09:11:21.164Z,9.53
2023-02-05T09:13:23.936Z,6.10
2023-02-05T09:15:26.024Z,6.97
2023-02-05T09:17:28.245Z,6.77
2023-02-05T09:19:33.313Z,4.93
2023-02-05T09:21:35.452Z,3.80
2023-02-05T09:23:38.088Z,3.63
2023-02-05T09:25:41.620Z,3.77
2023-02-05T09:27:43.729Z,4.23
2023-02-05T09:29:45.741Z,4.20
2023-02-05T09:31:47.930Z,3.93
2023-02-05T09:33:50.134Z,3.93
2023-02-05T09:35:52.107Z,3.47
2023-02-05T09:37:54.193Z,4.17
2023-02-05T09:42:47.857Z,4.20
2023-02-05T09:44:54.651Z,3.50
2023-02-05T09:47:02.829Z,4.47
2023-02-05T09:49:16.352Z,3.83
2023-02-05T09:51:26.257Z,3.63
2023-02-05T09:53:34.182Z,3.73
2023-02-05T09:55:38.866Z,3.90
2023-02-05T09:57:41.122Z,6.20
2023-02-05T09:59:45.923Z,3.80
2023-02-05T10:01:53.632Z,3.67
2023-02-05T10:04:00.284Z,3.80
2023-02-05T10:06:21.397Z,5.50
2023-02-05T10:09:02.607Z,6.90
2023-02-05T10:11:29.109Z,4.83
2023-02-05T10:13:37.740Z,6.73
2023-02-05T10:16:11.351Z,4.33
2023-02-05T10:18:27.506Z,3.87
2023-02-05T10:20:38.904Z,2.27
2023-02-05T10:23:05.622Z,2.60
2023-02-05T10:25:35.072Z,3.30
2023-02-05T10:27:43.112Z,4.27
2023-02-05T10:29:58.432Z,3.30
2023-02-05T10:32:07.892Z,2.80
2023-02-05T10:34:30.634Z,3.20
2023-02-05T10:36:38.388Z,3.13
2023-02-05T10:38:44.074Z,4.47
2023-02-05T10:40:46.712Z,14.37
2023-02-05T10:42:55.673Z,6.97
2023-02-05T10:45:14.579Z,3.60
2023-02-05T10:47:20.773Z,5.13
2023-02-05T10:49:27.100Z,3.60
2023-02-05T10:51:37.203Z,4.43
2023-02-05T10:53:39.761Z,3.50
2023-02-05T10:55:41.954Z,4.10
2023-02-05T10:57:44.065Z,3.87
2023-02-05T10:59:58.107Z,3.40
2023-02-05T11:02:09.066Z,3.20
2023-02-05T11:04:15.779Z,6.83
2023-02-05T11:06:18.087Z,3.37
2023-02-05T11:08:35.256Z,7.03
2023-02-05T11:10:37.747Z,4.10
2023-02-05T11:12:39.957Z,5.60
2023-02-05T11:14:44.917Z,6.20
2023-02-05T11:16:47.291Z,4.40
2023-02-05T11:18:58.424Z,4.90
2023-02-05T11:21:03.239Z,8.67
2023-02-05T11:23:20.490Z,8.80
2023-02-05T11:25:27.180Z,7.37
2023-02-05T11:27:33.489Z,4.37
2023-02-05T11:29:36.711Z,4.53
2023-02-05T11:31:38.871Z,3.83
2023-02-05T11:33:40.962Z,4.03
2023-02-05T11:35:52.428Z,8.33
2023-02-05T11:38:01.359Z,9.50
2023-02-05T11:40:03.659Z,3.53
2023-02-05T11:42:18.446Z,4.50
2023-02-05T11:44:30.247Z,3.97
2023-02-05T11:46:42.390Z,3.10
2023-02-05T11:48:57.961Z,6.40
2023-02-05T11:51:02.206Z,3.63
2023-02-05T11:53:13.371Z,3.50
2023-02-05T11:55:31.929Z,5.40
2023-02-05T11:57:37.891Z,3.87
2023-02-05T11:59:40.903Z,4.33
2023-02-05T12:01:44.287Z,3.43
2023-02-05T12:03:59.298Z,3.30
2023-02-05T12:06:21.138Z,3.50
2023-02-05T12:08:42.440Z,6.50
2023-02-05T12:10:54.349Z,3.20
2023-02-05T12:13:03.968Z,3.40
2023-02-05T12:15:08.789Z,3.40
2023-02-05T12:17:19.810Z,2.67
2023-02-05T12:19:31.049Z,3.20
2023-02-05T12:21:52.129Z,4.57
2023-02-05T12:24:15.946Z,4.87
2023-02-05T12:26:33.929Z,2.70
2023-02-05T12:29:16.977Z,4.87
2023-02-05T12:31:30.170Z,3.47
2023-02-05T12:33:58.464Z,3.43
2023-02-05T12:36:20.462Z,3.97
2023-02-05T12:38:50.263Z,3.53
2023-02-05T12:40:58.126Z,4.03
2023-02-05T12:43:26.136Z,3.63
2023-02-05T12:46:00.686Z,4.10
2023-02-05T12:48:26.982Z,3.83
2023-02-05T12:50:32.234Z,3.40
2023-02-05T12:52:57.826Z,8.60
2023-02-05T12:55:27.690Z,2.93
2023-02-05T12:57:38.972Z,3.93
2023-02-05T12:59:50.964Z,3.20
2023-02-05T13:01:57.586Z,4.17
2023-02-05T13:04:01.479Z,3.20
2023-02-05T13:06:24.314Z,3.73
2023-02-05T13:08:38.381Z,3.10
2023-02-05T13:10:52.187Z,3.03
2023-02-05T13:12:59.490Z,4.90
2023-02-05T13:15:16.880Z,3.30
2023-02-05T13:17:30.487Z,3.10
2023-02-05T13:19:41.250Z,3.50
2023-02-05T13:22:02.984Z,7.37
2023-02-05T13:24:58.426Z,3.47
2023-02-05T13:27:20.067Z,4.70
2023-02-05T13:29:24.104Z,3.93
2023-02-05T13:31:48.369Z,5.43
2023-02-05T13:33:52.102Z,4.10
2023-02-05T13:36:15.782Z,6.53
2023-02-05T13:38:28.593Z,8.37
2023-02-05T13:41:08.964Z,3.00
2023-02-05T13:43:24.228Z,3.17
2023-02-05T13:45:51.011Z,3.60
2023-02-05T13:47:59.606Z,5.03
2023-02-05T13:50:06.584Z,4.50
2023-02-05T13:52:33.720Z,2.70
2023-02-05T13:54:38.743Z,2.93
2023-02-05T13:56:59.152Z,6.20
2023-02-05T13:59:08.104Z,4.27
2023-02-05T14:01:21.545Z,3.27
2023-02-05T14:03:36.399Z,3.13
2023-02-05T14:05:41.472Z,2.77
2023-02-05T14:07:46.657Z,2.37
2023-02-05T14:09:56.442Z,3.10
2023-02-05T14:12:00.912Z,2.37
2023-02-05T14:14:18.141Z,2.40
2023-02-05T14:16:26.195Z,2.37
2023-02-05T14:18:40.394Z,6.90
2023-02-05T14:20:45.592Z,6.80
2023-02-05T14:22:47.818Z,4.03
2023-02-05T14:24:50.365Z,6.50
2023-02-05T14:26:57.121Z,4.60
2023-02-05T14:28:59.583Z,7.97
2023-02-05T14:31:07.345Z,5.43
2023-02-05T14:33:28.187Z,7.07
2023-02-05T14:35:40.655Z,7.37
2023-02-05T14:37:45.341Z,6.63
2023-02-05T14:39:47.505Z,4.97
2023-02-05T14:41:53.045Z,6.67
2023-02-05T14:44:04.844Z,6.57
2023-02-05T14:46:21.417Z,6.20
2023-02-05T14:48:30.147Z,5.13
2023-02-05T14:50:32.188Z,6.73
2023-02-05T14:52:38.723Z,6.87
2023-02-05T14:54:51.370Z,5.60
2023-02-05T14:57:21.231Z,5.30
2023-02-05T14:59:31.290Z,8.23
2023-02-05T15:01:33.502Z,7.60
2023-02-05T15:03:39.802Z,10.77
2023-02-05T15:05:44.454Z,7.10
2023-02-05T15:07:48.316Z,7.27
2023-02-05T15:10:00.592Z,6.70
2023-02-05T15:12:31.086Z,7.13
2023-02-05T15:14:43.777Z,8.10
2023-02-05T15:17:11.196Z,12.83
2023-02-05T15:19:15.770Z,14.20
2023-02-05T15:21:24.261Z,15.30
2023-02-05T15:23:35.098Z,18.27
2023-02-05T15:25:39.015Z,9.00
2023-02-05T15:27:43.949Z,14.23
2023-02-05T15:29:53.096Z,7.27
2023-02-05T15:31:57.922Z,11.23
2023-02-05T15:34:23.564Z,6.43
2023-02-05T15:36:31.201Z,19.50
2023-02-05T15:38:39.591Z,34.70
2023-02-05T15:40:41.856Z,38.47
2023-02-05T15:42:46.055Z,18.00
2023-02-05T15:44:48.195Z,18.37
2023-02-05T15:46:50.715Z,11.40
2023-02-05T15:48:52.884Z,24.67
2023-02-05T15:50:58.682Z,33.13
2023-02-05T15:53:01.011Z,39.87
2023-02-05T15:55:13.235Z,21.90
2023-02-05T15:57:24.317Z,7.47
2023-02-05T15:59:28.874Z,6.17
2023-02-05T16:01:34.861Z,8.20
2023-02-05T16:03:38.941Z,13.10
2023-02-05T16:05:51.690Z,8.30
2023-02-05T16:07:58.859Z,6.03
2023-02-05T16:10:02.335Z,6.57
2023-02-05T16:12:14.307Z,6.33
2023-02-05T16:14:19.257Z,7.13
2023-02-05T16:16:24.419Z,6.60
2023-02-05T16:18:47.232Z,6.60
2023-02-05T16:20:53.593Z,8.40
2023-02-05T16:23:07.901Z,12.10
2023-02-05T16:25:37.235Z,8.57
2023-02-05T16:27:46.579Z,9.53
2023-02-05T16:29:55.678Z,7.33
2023-02-05T16:31:59.851Z,7.17
2023-02-05T16:34:17.925Z,7.30
2023-02-05T16:36:26.026Z,7.20
2023-02-05T16:38:28.439Z,6.10
2023-02-05T16:40:40.029Z,5.43
2023-02-05T16:42:43.477Z,6.10
2023-02-05T16:44:47.634Z,5.77
2023-02-05T16:47:24.770Z,5.77
2023-02-05T16:49:26.808Z,5.63
2023-02-05T16:51:45.571Z,5.80
2023-02-05T16:53:49.732Z,6.77
2023-02-05T16:55:58.586Z,16.67
2023-02-05T16:58:05.581Z,18.97
2023-02-05T17:00:20.316Z,24.60
2023-02-05T17:02:29.695Z,25.07
2023-02-05T17:04:34.738Z,23.50
2023-02-05T17:06:37.779Z,18.97
2023-02-05T17:08:40.256Z,10.87
2023-02-05T17:10:57.112Z,12.27
2023-02-05T17:13:03.259Z,8.30
2023-02-05T17:15:26.380Z,8.30
2023-02-05T17:17:30.639Z,10.00
2023-02-05T17:19:34.043Z,9.60
2023-02-05T17:21:37.410Z,7.53
2023-02-05T17:23:39.583Z,8.37
2023-02-05T17:25:55.516Z,6.40
2023-02-05T17:27:57.796Z,6.63
2023-02-05T17:30:00.591Z,7.10
2023-02-05T17:32:03.899Z,7.60
2023-02-05T17:34:06.514Z,5.50
2023-02-05T17:36:15.271Z,6.87
2023-02-05T17:38:18.239Z,7.73
2023-02-05T17:40:20.537Z,6.07
2023-02-05T17:42:25.738Z,11.43
2023-02-05T17:44:28.278Z,6.90
2023-02-05T17:46:30.792Z,8.37
2023-02-05T17:48:32.983Z,5.20
2023-02-05T17:50:36.507Z,6.57
2023-02-05T17:52:40.803Z,8.40
2023-02-05T17:54:43.563Z,7.87
2023-02-05T17:56:48.188Z,10.23
2023-02-05T17:58:51.342Z,11.30
2023-02-05T18:00:54.682Z,10.23
2023-02-05T18:02:56.971Z,11.03
2023-02-05T18:04:59.198Z,14.10
2023-02-05T18:07:01.478Z,12.57
2023-02-05T18:09:04.250Z,11.83
2023-02-05T18:11:06.489Z,12.00
2023-02-05T18:13:08.739Z,9.73
2023-02-05T18:15:11.894Z,10.13
2023-02-05T18:17:14.394Z,10.67
2023-02-05T18:19:16.808Z,13.30
2023-02-05T18:21:21.485Z,12.07
2023-02-05T18:23:28.763Z,19.63
2023-02-05T18:25:31.563Z,16.20
2023-02-05T18:27:33.797Z,14.27
2023-02-05T18:29:36.080Z,14.60
2023-02-05T18:31:38.406Z,13.47
2023-02-05T18:33:40.760Z,14.07
2023-02-05T18:35:43.130Z,10.67
2023-02-05T18:37:45.311Z,13.60
2023-02-05T18:39:48.286Z,12.77
2023-02-05T18:41:50.669Z,9.60
2023-02-05T18:43:54.559Z,8.60
2023-02-05T18:45:56.920Z,11.13
2023-02-05T18:48:01.176Z,13.87
2023-02-05T18:50:04.215Z,11.97
2023-02-05T18:52:07.370Z,14.77
2023-02-05T18:54:09.562Z,12.40
2023-02-05T18:56:16.851Z,12.60
2023-02-05T18:58:19.154Z,14.00
2023-02-05T19:00:21.317Z,16.57
2023-02-05T19:02:23.501Z,19.57
2023-02-05T19:04:27.891Z,20.50
2023-02-05T19:06:30.144Z,14.97
2023-02-05T19:08:32.472Z,18.90
2023-02-05T19:10:36.941Z,16.37
2023-02-05T19:12:39.310Z,19.07
2023-02-05T19:14:41.501Z,17.40
2023-02-05T19:16:44.461Z,22.57
2023-02-05T19:18:46.905Z,21.80
2023-02-05T19:20:49.480Z,28.60
2023-02-05T19:22:54.443Z,26.43
2023-02-05T19:24:56.838Z,27.70
2023-02-05T19:26:59.292Z,22.07
2023-02-05T19:29:04.783Z,28.23
2023-02-05T19:31:09.134Z,24.77
2023-02-05T19:33:11.387Z,26.00
2023-02-05T19:35:13.786Z,24.00
2023-02-05T19:37:17.756Z,28.23
2023-02-05T19:39:20.026Z,16.57
2023-02-05T19:41:26.306Z,16.17
2023-02-05T19:43:28.481Z,19.37
2023-02-05T19:45:30.657Z,15.43
2023-02-05T19:47:32.885Z,16.93
2023-02-05T19:49:35.415Z,20.20
2023-02-05T19:51:37.680Z,18.10
2023-02-05T19:53:41.537Z,23.17
2023-02-05T19:55:43.768Z,27.40
2023-02-05T19:57:45.996Z,20.77
2023-02-05T19:59:48.180Z,23.80
2023-02-05T20:01:51.268Z,22.47
2023-02-05T20:03:59.734Z,25.50
2023-02-05T20:06:04.614Z,29.23
2023-02-05T20:08:06.753Z,23.87
2023-02-05T20:10:09.149Z,24.77
2023-02-05T20:12:13.022Z,25.30
2023-02-05T20:14:16.941Z,23.43
2023-02-05T20:16:21.316Z,25.97
2023-02-05T20:18:23.739Z,22.47
2023-02-05T20:20:33.518Z,25.53
2023-02-05T20:22:36.163Z,24.83
2023-02-05T20:24:38.346Z,29.40
2023-02-05T20:26:40.864Z,21.43
2023-02-05T20:29:01.601Z,22.33
2023-02-05T20:31:25.077Z,18.87
2023-02-05T20:33:27.217Z,21.57
2023-02-05T20:35:29.465Z,18.50
2023-02-05T20:37:33.037Z,19.90
2023-02-05T20:39:38.659Z,17.57
2023-02-05T20:41:40.892Z,21.80
2023-02-05T20:43:43.538Z,21.13
2023-02-05T20:45:45.722Z,22.90
2023-02-05T20:47:47.992Z,16.20
2023-02-05T20:49:50.229Z,16.97
2023-02-05T20:51:53.292Z,19.40
2023-02-05T20:53:59.141Z,19.40
2023-02-05T20:56:06.788Z,18.40
2023-02-05T20:58:09.185Z,21.33
2023-02-05T21:00:12.293Z,19.70
2023-02-05T21:02:15.603Z,21.40
2023-02-05T21:04:17.952Z,20.33
2023-02-05T21:06:21.899Z,21.17
2023-02-05T21:08:24.105Z,22.77
2023-02-05T21:10:26.332Z,27.43
2023-02-05T21:12:31.201Z,17.70
2023-02-05T21:14:33.733Z,19.33
2023-02-05T21:16:36.735Z,16.93
2023-02-05T21:18:40.458Z,13.60
2023-02-05T21:20:42.591Z,15.53
2023-02-05T21:22:44.713Z,16.10
2023-02-05T21:24:46.911Z,14.03
2023-02-05T21:26:49.838Z,11.97
2023-02-05T21:28:54.093Z,18.90
2023-02-05T21:31:07.501Z,17.93
2023-02-05T21:33:09.934Z,15.37
2023-02-05T21:35:12.083Z,15.90
2023-02-05T21:37:14.351Z,14.70
2023-02-05T21:39:17.058Z,16.87
2023-02-05T21:41:19.642Z,13.13
2023-02-05T21:43:21.962Z,12.40
2023-02-05T21:45:24.233Z,15.30
2023-02-05T21:47:26.536Z,11.40
2023-02-05T21:49:28.715Z,12.43
2023-02-05T21:51:34.014Z,8.80
2023-02-05T21:53:36.487Z,12.73
2023-02-05T21:55:38.806Z,9.73
2023-02-05T21:57:41.049Z,13.80
2023-02-05T21:59:43.333Z,9.50
2023-02-05T22:01:45.888Z,15.77
2023-02-05T22:03:50.796Z,12.10
2023-02-05T22:05:52.962Z,11.87
2023-02-05T22:07:55.197Z,9.87
2023-02-05T22:09:57.473Z,11.37
2023-02-05T22:12:03.881Z,10.17
2023-02-05T22:14:07.017Z,10.37
2023-02-05T22:16:15.219Z,19.53
2023-02-05T22:18:18.756Z,11.17
2023-02-05T22:20:20.945Z,10.10
2023-02-05T22:22:23.145Z,9.53
2023-02-05T22:24:25.377Z,12.10
2023-02-05T22:26:36.638Z,11.03
2023-02-05T22:28:40.061Z,10.97
2023-02-05T22:30:42.289Z,15.70
2023-02-05T22:32:44.563Z,13.03
2023-02-05T22:34:46.740Z,9.67
2023-02-05T22:36:48.916Z,15.17
2023-02-05T22:38:53.446Z,8.43
2023-02-05T22:40:55.638Z,9.30
2023-02-05T22:42:57.789Z,9.53
2023-02-05T22:44:59.974Z,11.07
2023-02-05T22:47:02.272Z,9.50
2023-02-05T22:49:04.890Z,13.73
2023-02-05T22:51:09.888Z,12.00
2023-02-05T22:53:13.309Z,14.23
2023-02-05T22:55:15.467Z,18.30
2023-02-05T22:57:17.669Z,14.00
2023-02-05T22:59:19.814Z,10.70
2023-02-05T23:01:23.705Z,12.80
2023-02-05T23:03:25.982Z,20.77
2023-02-05T23:05:33.321Z,13.10
2023-02-05T23:07:35.879Z,15.93
2023-02-05T23:09:38.267Z,12.13
2023-02-05T23:11:40.597Z,13.57
2023-02-05T23:13:42.977Z,14.67
2023-02-05T23:15:45.203Z,12.07
2023-02-05T23:17:47.371Z,12.53
2023-02-05T23:19:52.811Z,14.60
2023-02-05T23:21:54.973Z,19.33
2023-02-05T23:23:57.670Z,13.83
2023-02-05T23:26:08.149Z,14.37
2023-02-05T23:28:10.365Z,17.70
2023-02-05T23:30:13.069Z,10.73
2023-02-05T23:32:15.308Z,11.93
2023-02-05T23:34:17.516Z,12.90
2023-02-05T23:36:19.886Z,10.50
2023-02-05T23:38:25.055Z,12.60
2023-02-05T23:40:27.214Z,11.10
2023-02-05T23:42:29.416Z,13.20
2023-02-05T23:44:31.837Z,15.70
2023-02-05T23:46:35.419Z,15.77
2023-02-05T23:48:37.749Z,13.70
2023-02-05T23:50:39.961Z,13.90
2023-02-05T23:52:42.255Z,14.47
2023-02-05T23:54:44.767Z,13.63
2023-02-05T23:56:47.117Z,15.73
2023-02-05T23:58:49.315Z,18.67
